Time;durP1;ratioP1;P1;durP2;ratioP2;P2;SDS_P1;SDS_P2;PMS_P1;PMS_P2;Temp;Humidity;BMP_temperature;BMP_pressure;BME280_temperature;BME280_humidity;BME280_pressure;Samples;Min_cycle;Max_cycle;Signal;HPM_P1;HPM_P2
2023/10/30 00:01:09;;;;;;;2.28;1.00;;;23.30;58.30;;;;;;5995589;23;90440;-92
2023/10/30 00:03:35;;;;;;;3.13;1.25;;;23.40;58.30;;;;;;6010890;23;90041;-91
2023/10/30 00:06:01;;;;;;;2.83;1.20;;;23.30;58.30;;;;;;6011440;23;87249;-91
2023/10/30 00:08:26;;;;;;;1.17;0.80;;;23.30;58.30;;;;;;6012358;23;89448;-89
2023/10/30 00:10:52;;;;;;;3.05;1.08;;;23.30;58.60;;;;;;6011789;23;88350;-91
2023/10/30 00:13:18;;;;;;;1.58;0.80;;;23.30;58.50;;;;;;6036955;23;88401;-91
2023/10/30 00:15:43;;;;;;;1.45;0.70;;;23.30;58.30;;;;;;6012205;23;87278;-90
2023/10/30 00:18:09;;;;;;;2.22;0.90;;;23.20;58.40;;;;;;6010385;23;89143;-92
2023/10/30 00:20:37;;;;;;;2.45;1.00;;;23.20;58.30;;;;;;6010659;23;89206;-91
2023/10/30 00:23:02;;;;;;;2.15;1.33;;;23.20;58.40;;;;;;6036718;23;87243;-91
2023/10/30 00:25:28;;;;;;;1.23;0.80;;;23.20;58.50;;;;;;6009437;23;89186;-91
2023/10/30 00:27:59;;;;;;;3.55;1.08;;;23.20;58.40;;;;;;6010401;23;89135;-92
2023/10/30 00:30:30;;;;;;;1.67;0.93;;;23.20;58.30;;;;;;5987978;23;90313;-91
2023/10/30 00:32:56;;;;;;;2.08;1.10;;;23.20;58.40;;;;;;6010903;23;90239;-91
2023/10/30 00:35:21;;;;;;;2.30;0.70;;;23.20;58.40;;;;;;6011504;23;87470;-92
2023/10/30 00:37:47;;;;;;;1.65;0.90;;;23.20;58.30;;;;;;6010414;23;89464;-91
2023/10/30 00:40:13;;;;;;;2.35;1.10;;;23.10;58.30;;;;;;6010636;23;90694;-92
2023/10/30 00:42:38;;;;;;;4.57;1.23;;;23.20;58.60;;;;;;6010722;23;89338;-90
2023/10/30 00:45:05;;;;;;;1.05;0.77;;;23.10;58.50;;;;;;6009459;23;87394;-91
2023/10/30 00:47:31;;;;;;;2.30;0.77;;;23.10;58.40;;;;;;6011595;23;88490;-90
2023/10/30 00:49:56;;;;;;;2.60;1.20;;;23.10;58.60;;;;;;6010934;23;90630;-90
2023/10/30 00:52:22;;;;;;;1.52;0.90;;;23.10;58.60;;;;;;6009749;23;91306;-90
2023/10/30 00:54:48;;;;;;;1.50;0.80;;;23.10;58.40;;;;;;6011024;23;87218;-90
2023/10/30 00:57:14;;;;;;;2.17;0.88;;;23.00;58.50;;;;;;5986198;23;89835;-91
2023/10/30 00:59:40;;;;;;;1.88;0.80;;;23.10;58.90;;;;;;5993333;23;90577;-91
2023/10/30 01:02:06;;;;;;;1.27;0.90;;;23.10;59.00;;;;;;6036395;23;87531;-91
2023/10/30 01:04:31;;;;;;;2.72;1.17;;;23.00;58.90;;;;;;5970947;23;87463;-91
2023/10/30 01:06:58;;;;;;;1.40;1.00;;;23.00;58.80;;;;;;6010719;23;87572;-92
2023/10/30 01:09:23;;;;;;;2.25;0.88;;;23.00;58.80;;;;;;5998530;23;90587;-91
2023/10/30 01:11:49;;;;;;;1.15;0.70;;;23.00;58.90;;;;;;6011893;23;87796;-91
2023/10/30 01:14:14;;;;;;;2.90;0.70;;;23.00;58.70;;;;;;6010812;23;88252;-91
2023/10/30 01:16:52;;;;;;;1.02;0.75;;;23.00;58.70;;;;;;6037258;23;87448;-91
2023/10/30 01:19:18;;;;;;;2.20;1.00;;;23.00;58.60;;;;;;6011410;23;89235;-91
2023/10/30 01:21:44;;;;;;;2.85;0.93;;;23.00;58.80;;;;;;6009814;23;89445;-91
2023/10/30 01:24:10;;;;;;;4.72;1.35;;;23.00;59.00;;;;;;6009820;23;87217;-91
2023/10/30 01:26:35;;;;;;;1.60;1.00;;;23.00;58.90;;;;;;6036203;23;87186;-90
2023/10/30 01:29:01;;;;;;;1.90;0.85;;;23.00;58.80;;;;;;6010125;23;90290;-91
2023/10/30 01:31:27;;;;;;;2.70;0.95;;;22.90;58.70;;;;;;6010326;23;92671;-91
2023/10/30 01:33:57;;;;;;;2.63;1.02;;;22.90;58.80;;;;;;6010887;23;87593;-91
2023/10/30 01:36:23;;;;;;;;;;;22.90;59.00;;;;;;6008938;23;88713;-91
2023/10/30 01:38:49;;;;;;;3.15;1.42;;;22.90;59.00;;;;;;6009771;23;91163;-91
2023/10/30 01:41:15;;;;;;;1.83;1.08;;;22.90;59.00;;;;;;6009571;23;89928;-91
2023/10/30 01:43:40;;;;;;;3.05;0.88;;;22.90;58.90;;;;;;6009574;23;87261;-91
2023/10/30 01:46:06;;;;;;;2.55;1.10;;;22.90;59.00;;;;;;6009827;23;89087;-92
2023/10/30 01:48:34;;;;;;;2.10;1.00;;;22.90;59.00;;;;;;6036192;23;87681;-92
2023/10/30 01:51:02;;;;;;;2.15;1.15;;;22.90;58.80;;;;;;6010887;23;88511;-91
2023/10/30 01:53:31;;;;;;;1.27;0.68;;;22.90;58.80;;;;;;6031468;23;87230;-90
2023/10/30 01:56:04;;;;;;;1.65;0.80;;;22.90;58.70;;;;;;5971435;23;93354;-93
2023/10/30 01:58:31;;;;;;;2.60;1.02;;;22.90;58.80;;;;;;6034395;23;89475;-92
2023/10/30 02:00:59;;;;;;;2.30;0.80;;;22.80;58.80;;;;;;5974908;23;89160;-91
2023/10/30 02:03:26;;;;;;;1.63;0.90;;;22.80;58.80;;;;;;6001849;23;88507;-91
2023/10/30 02:05:53;;;;;;;1.10;0.80;;;22.80;58.80;;;;;;5989095;23;87678;-92
2023/10/30 02:08:19;;;;;;;1.38;0.82;;;22.80;58.70;;;;;;5989765;23;88932;-90
2023/10/30 02:10:45;;;;;;;1.80;0.93;;;22.80;58.70;;;;;;6009897;23;89267;-91
2023/10/30 02:13:11;;;;;;;1.52;0.90;;;22.80;58.90;;;;;;5998200;23;87755;-91
2023/10/30 02:15:36;;;;;;;2.40;1.00;;;22.80;58.80;;;;;;6010746;23;88256;-91
2023/10/30 02:18:03;;;;;;;1.88;0.95;;;22.80;58.80;;;;;;6035742;23;87740;-92
2023/10/30 02:20:29;;;;;;;1.92;1.02;;;22.80;58.80;;;;;;6011727;23;88727;-91
2023/10/30 02:22:54;;;;;;;1.65;0.93;;;22.80;58.80;;;;;;6010801;23;87597;-91
2023/10/30 02:25:24;;;;;;;1.42;1.15;;;22.80;58.90;;;;;;6008542;23;89610;-91
2023/10/30 02:27:51;;;;;;;1.45;0.80;;;22.80;58.80;;;;;;6010336;23;90122;-91
2023/10/30 02:30:17;;;;;;;1.95;0.90;;;22.80;58.90;;;;;;6009330;23;89374;-91
2023/10/30 02:32:45;;;;;;;2.45;1.02;;;22.80;58.90;;;;;;6010649;23;87590;-91
2023/10/30 02:35:19;;;;;;;1.75;0.70;;;22.80;58.90;;;;;;6010257;23;88286;-92
2023/10/30 02:37:46;;;;;;;1.77;0.90;;;22.80;58.80;;;;;;6035729;23;87567;-91
2023/10/30 02:40:13;;;;;;;2.13;1.10;;;22.80;58.90;;;;;;6011990;23;88912;-91
2023/10/30 02:42:39;;;;;;;1.90;1.00;;;22.70;58.60;;;;;;6011112;23;87229;-89
2023/10/30 02:45:06;;;;;;;1.60;1.02;;;22.70;58.60;;;;;;6037486;23;87165;-91
2023/10/30 02:47:32;;;;;;;2.40;1.13;;;22.70;58.60;;;;;;6012397;23;90358;-91
2023/10/30 02:49:58;;;;;;;1.67;1.00;;;22.70;58.90;;;;;;6011565;23;93272;-92
2023/10/30 02:52:23;;;;;;;2.30;0.90;;;22.70;58.80;;;;;;6009438;23;88253;-90
2023/10/30 02:54:49;;;;;;;1.90;1.05;;;22.70;58.80;;;;;;6010838;23;89062;-92
2023/10/30 02:57:15;;;;;;;2.50;1.20;;;22.70;58.80;;;;;;6010137;23;89274;-92
2023/10/30 02:59:41;;;;;;;1.50;0.90;;;22.70;58.90;;;;;;6011196;23;89379;-92
2023/10/30 03:02:06;;;;;;;1.42;0.80;;;22.70;58.70;;;;;;6012864;23;87320;-90
2023/10/30 03:04:33;;;;;;;1.13;0.70;;;22.70;58.70;;;;;;5994885;23;87335;-91
2023/10/30 03:06:59;;;;;;;2.25;1.15;;;22.60;58.80;;;;;;6010175;23;87744;-91
2023/10/30 03:09:26;;;;;;;2.90;1.10;;;22.70;58.60;;;;;;5983456;23;90113;-91
2023/10/30 03:11:52;;;;;;;4.00;1.00;;;22.60;58.70;;;;;;6022570;23;87553;-91
2023/10/30 03:14:17;;;;;;;1.75;0.90;;;22.60;58.70;;;;;;6010245;23;89079;-92
2023/10/30 03:16:55;;;;;;;2.85;1.27;;;22.60;58.80;;;;;;6036988;23;88945;-91
2023/10/30 03:19:20;;;;;;;1.42;0.73;;;22.60;58.80;;;;;;6009281;23;90929;-90
2023/10/30 03:21:46;;;;;;;0.77;0.60;;;22.60;58.70;;;;;;6010394;23;87735;-92
2023/10/30 03:24:11;;;;;;;1.33;0.88;;;22.60;58.80;;;;;;6010747;23;87998;-91
2023/10/30 03:26:37;;;;;;;1.65;0.75;;;22.60;59.00;;;;;;6009109;23;90748;-92
2023/10/30 03:29:03;;;;;;;1.33;0.82;;;22.60;58.90;;;;;;6037546;23;87554;-91
2023/10/30 03:31:28;;;;;;;1.58;0.88;;;22.60;58.80;;;;;;6011307;23;87560;-91
2023/10/30 03:33:54;;;;;;;1.05;0.80;;;22.60;58.80;;;;;;6036250;23;87727;-92
2023/10/30 03:36:25;;;;;;;1.85;0.80;;;22.60;58.80;;;;;;6011076;23;90355;-91
2023/10/30 03:38:51;;;;;;;1.73;0.80;;;22.60;58.70;;;;;;6011253;23;90511;-90
2023/10/30 03:41:18;;;;;;;1.67;0.75;;;22.60;58.90;;;;;;6011559;23;88202;-92
2023/10/30 03:43:43;;;;;;;3.47;1.35;;;22.60;58.60;;;;;;6008984;23;88284;-91
2023/10/30 03:46:09;;;;;;;1.48;0.88;;;22.60;58.60;;;;;;6008219;23;88988;-91
2023/10/30 03:48:35;;;;;;;2.60;0.82;;;22.60;59.00;;;;;;6009484;23;90101;-92
2023/10/30 03:51:02;;;;;;;2.55;0.85;;;22.60;58.80;;;;;;6008981;23;87632;-91
2023/10/30 03:53:29;;;;;;;1.27;0.90;;;22.50;58.70;;;;;;6038696;23;87292;-90
2023/10/30 03:55:55;;;;;;;3.25;1.02;;;22.50;58.80;;;;;;6009752;23;89706;-92
2023/10/30 03:58:40;;;;;;;1.75;0.70;;;22.50;58.70;;;;;;6010147;23;89089;-91
2023/10/30 04:01:07;;;;;;;1.45;0.75;;;22.50;58.70;;;;;;5973666;23;87317;-92
2023/10/30 04:03:33;;;;;;;2.08;0.95;;;22.50;58.80;;;;;;6004737;23;88029;-91
2023/10/30 04:06:03;;;;;;;0.95;0.63;;;22.50;58.70;;;;;;6014970;23;89346;-91
2023/10/30 04:08:28;;;;;;;1.42;0.73;;;22.50;58.60;;;;;;6018146;23;88280;-92
2023/10/30 04:10:54;;;;;;;1.38;0.70;;;22.50;58.70;;;;;;6010517;23;86852;-92
2023/10/30 04:13:19;;;;;;;3.13;1.10;;;22.50;58.80;;;;;;5999264;23;87697;-91
2023/10/30 04:15:46;;;;;;;3.85;1.23;;;22.50;58.80;;;;;;6008364;23;89255;-92
2023/10/30 04:18:12;;;;;;;2.10;1.20;;;22.50;58.80;;;;;;6010335;23;90110;-91
2023/10/30 04:20:37;;;;;;;1.63;0.80;;;22.50;58.70;;;;;;6036975;23;87172;-91
2023/10/30 04:23:03;;;;;;;1.63;0.90;;;22.50;58.70;;;;;;6011328;23;88227;-91
2023/10/30 04:25:29;;;;;;;0.80;0.70;;;22.50;58.80;;;;;;6009423;23;90985;-91
2023/10/30 04:27:55;;;;;;;3.28;0.90;;;22.40;58.60;;;;;;6039019;23;87311;-93
2023/10/30 04:30:21;;;;;;;5.57;0.90;;;22.40;58.80;;;;;;6039936;23;88534;-96
2023/10/30 04:33:04;;;;;;;2.92;1.02;;;22.40;59.00;;;;;;6012511;23;88913;-94
2023/10/30 04:35:29;;;;;;;1.55;0.77;;;22.40;59.40;;;;;;6013337;23;90831;-94
2023/10/30 04:37:55;;;;;;;1.35;0.70;;;22.40;59.30;;;;;;6013733;23;89132;-95
2023/10/30 04:40:22;;;;;;;1.48;0.80;;;22.40;59.40;;;;;;6016386;23;86971;-95
2023/10/30 04:42:47;;;;;;;3.55;1.20;;;22.40;59.60;;;;;;6040149;23;87473;-92
2023/10/30 04:45:13;;;;;;;1.33;0.70;;;22.40;59.40;;;;;;6014934;23;89088;-94
2023/10/30 04:47:39;;;;;;;3.88;0.88;;;22.40;59.40;;;;;;6014791;23;89732;-96
2023/10/30 04:50:05;;;;;;;4.10;1.10;;;22.40;59.30;;;;;;6015778;23;87623;-95
2023/10/30 04:52:31;;;;;;;1.92;0.82;;;22.40;59.50;;;;;;6014442;23;88932;-94
2023/10/30 04:54:56;;;;;;;1.20;0.90;;;22.40;59.60;;;;;;6011515;23;90084;-93
2023/10/30 04:57:22;;;;;;;1.90;1.00;;;22.40;59.70;;;;;;5987017;23;91081;-92
2023/10/30 04:59:47;;;;;;;1.90;1.13;;;22.40;59.60;;;;;;6009741;23;87657;-92
2023/10/30 05:02:50;;;;;;;2.80;1.20;;;22.40;59.80;;;;;;6013478;23;89210;-93
2023/10/30 05:05:16;;;;;;;2.10;1.02;;;22.40;59.80;;;;;;6008311;23;93326;-92
2023/10/30 05:07:44;;;;;;;1.58;0.93;;;22.40;59.80;;;;;;6038412;23;87996;-92
2023/10/30 05:10:12;;;;;;;3.40;1.00;;;22.40;59.70;;;;;;5999989;23;87196;-88
2023/10/30 05:12:37;;;;;;;2.25;1.38;;;22.40;58.70;;;;;;6038338;23;86904;-91
2023/10/30 05:15:04;;;;;;;3.55;1.10;;;22.40;59.70;;;;;;6011633;23;90584;-92
2023/10/30 05:17:30;;;;;;;2.70;0.95;;;22.40;59.50;;;;;;6014174;23;90428;-90
2023/10/30 05:19:56;;;;;;;2.53;1.00;;;22.40;59.40;;;;;;6038326;23;88314;-95
2023/10/30 05:22:22;;;;;;;4.05;1.10;;;22.30;59.00;;;;;;5988509;23;88063;-90
2023/10/30 05:24:47;;;;;;;4.70;1.30;;;22.40;59.10;;;;;;6012522;23;88858;-91
2023/10/30 05:27:13;;;;;;;1.95;0.98;;;22.40;59.20;;;;;;6037234;23;87837;-92
2023/10/30 05:29:39;;;;;;;2.80;1.10;;;22.40;59.20;;;;;;6012998;23;87046;-91
2023/10/30 05:32:06;;;;;;;2.33;1.05;;;22.40;59.00;;;;;;6013966;23;88479;-92
2023/10/30 05:34:41;;;;;;;3.03;1.00;;;22.40;59.00;;;;;;6012580;23;90521;-92
2023/10/30 05:37:09;;;;;;;1.88;0.88;;;22.40;59.00;;;;;;6011347;23;90219;-91
2023/10/30 05:39:34;;;;;;;1.55;0.90;;;22.30;58.90;;;;;;6012581;23;87552;-93
2023/10/30 05:42:01;;;;;;;1.77;0.85;;;22.40;58.90;;;;;;6011777;23;88246;-92
2023/10/30 05:44:30;;;;;;;1.40;0.68;;;22.40;58.80;;;;;;6011555;23;91504;-89
2023/10/30 05:46:56;;;;;;;1.50;0.90;;;22.30;59.00;;;;;;6038193;23;88559;-90
2023/10/30 05:49:21;;;;;;;1.95;1.00;;;22.30;58.90;;;;;;6012107;23;87571;-93
2023/10/30 05:51:47;;;;;;;2.63;1.00;;;22.30;58.90;;;;;;6012038;23;89534;-90
2023/10/30 05:54:12;;;;;;;1.73;0.75;;;22.30;59.10;;;;;;5988969;23;89872;-93
2023/10/30 05:56:38;;;;;;;1.48;0.75;;;22.30;59.00;;;;;;5997834;23;88905;-91
2023/10/30 05:59:04;;;;;;;3.65;0.95;;;22.30;59.10;;;;;;6013446;23;87710;-90
2023/10/30 06:01:29;;;;;;;1.70;1.20;;;22.30;59.10;;;;;;5974583;23;87998;-91
2023/10/30 06:03:56;;;;;;;2.65;1.10;;;22.30;59.00;;;;;;6012066;23;90208;-91
2023/10/30 06:06:22;;;;;;;3.22;0.73;;;22.30;58.80;;;;;;5988511;23;89894;-92
2023/10/30 06:08:47;;;;;;;2.33;0.90;;;22.30;58.70;;;;;;5997567;23;87793;-91
2023/10/30 06:11:13;;;;;;;2.92;1.00;;;22.30;58.90;;;;;;6012760;23;89087;-90
2023/10/30 06:13:39;;;;;;;2.63;1.00;;;22.30;58.90;;;;;;6013437;23;89401;-91
2023/10/30 06:16:25;;;;;;;1.95;1.02;;;22.30;58.90;;;;;;6012470;23;90571;-90
2023/10/30 06:18:50;;;;;;;3.20;0.98;;;22.30;58.90;;;;;;6035928;23;87435;-91
2023/10/30 06:21:17;;;;;;;2.60;0.80;;;22.30;58.90;;;;;;6011613;23;88431;-92
2023/10/30 06:23:43;;;;;;;3.20;0.88;;;22.20;59.00;;;;;;6010604;23;88803;-91
2023/10/30 06:26:13;;;;;;;3.00;1.05;;;22.20;58.90;;;;;;6014375;23;89995;-92
2023/10/30 06:28:43;;;;;;;1.67;0.80;;;22.20;58.90;;;;;;6084115;22;87481;-92
2023/10/30 06:31:16;;;;;;;1.08;0.70;;;22.20;59.10;;;;;;6130316;23;87062;-88
2023/10/30 06:33:42;;;;;;;1.80;0.90;;;22.20;59.00;;;;;;6134214;22;90506;-91
2023/10/30 06:36:08;;;;;;;2.80;0.90;;;22.20;58.90;;;;;;6087587;23;91103;-86
2023/10/30 06:38:34;;;;;;;3.45;0.90;;;22.20;58.90;;;;;;6094346;23;87611;-89
2023/10/30 06:41:00;;;;;;;3.13;1.35;;;22.20;58.90;;;;;;6092677;23;89455;-88
2023/10/30 06:43:38;;;;;;;5.65;1.65;;;22.20;59.00;;;;;;6092598;23;89059;-89
2023/10/30 06:46:04;;;;;;;8.20;1.87;;;22.20;59.10;;;;;;6091552;23;89919;-91
2023/10/30 06:48:31;;;;;;;17.95;4.05;;;22.30;59.20;;;;;;6086880;23;87703;-87
2023/10/30 06:50:57;;;;;;;15.43;2.95;;;22.20;59.00;;;;;;6078075;23;86636;-88
2023/10/30 06:53:44;;;;;;;11.43;2.42;;;22.30;59.20;;;;;;6107884;22;88195;-91
2023/10/30 06:56:09;;;;;;;10.32;2.97;;;22.30;59.20;;;;;;6091167;23;93821;-90
2023/10/30 06:58:35;;;;;;;15.05;3.40;;;22.20;59.30;;;;;;6082809;22;88166;-90
2023/10/30 07:01:04;;;;;;;13.80;3.85;;;22.30;59.40;;;;;;6092300;23;87558;-90
2023/10/30 07:03:30;;;;;;;14.52;2.97;;;22.30;59.50;;;;;;6080579;23;89222;-90
2023/10/30 07:05:56;;;;;;;13.00;3.70;;;22.30;59.50;;;;;;6090377;23;89828;-90
2023/10/30 07:08:40;;;;;;;21.13;4.25;;;22.30;59.60;;;;;;6094750;23;87428;-91
2023/10/30 07:11:05;;;;;;;21.13;4.03;;;22.30;59.70;;;;;;6090946;23;93289;-89
2023/10/30 07:13:32;;;;;;;15.38;3.13;;;22.30;59.70;;;;;;6090436;23;89860;-91
2023/10/30 07:15:58;;;;;;;16.48;4.28;;;22.30;59.60;;;;;;6069105;23;90017;-89
2023/10/30 07:18:23;;;;;;;18.65;4.07;;;22.30;59.60;;;;;;6096033;23;87375;-92
2023/10/30 07:20:49;;;;;;;17.55;4.35;;;22.30;59.90;;;;;;6099072;23;87982;-87
2023/10/30 07:23:15;;;;;;;16.30;4.50;;;22.30;59.70;;;;;;6098439;23;91082;-93
2023/10/30 07:25:40;;;;;;;14.98;3.75;;;22.30;59.80;;;;;;6097319;23;90200;-89
2023/10/30 07:28:06;;;;;;;12.98;3.17;;;22.30;59.80;;;;;;6099481;23;87401;-93
2023/10/30 07:30:32;;;;;;;14.40;3.38;;;22.30;59.90;;;;;;6072245;23;88514;-90
2023/10/30 07:32:57;;;;;;;17.55;3.47;;;22.30;60.10;;;;;;6097090;23;88008;-91
2023/10/30 07:35:23;;;;;;;10.80;3.78;;;22.30;60.00;;;;;;6098267;23;87811;-88
2023/10/30 07:37:49;;;;;;;15.07;3.65;;;22.30;60.10;;;;;;6093817;23;87500;-86
2023/10/30 07:40:14;;;;;;;14.45;3.38;;;22.30;59.70;;;;;;6099275;23;86788;-90
2023/10/30 07:42:40;;;;;;;13.82;3.65;;;22.30;59.90;;;;;;6095902;23;91098;-87
2023/10/30 07:45:06;;;;;;;12.25;3.33;;;22.30;59.80;;;;;;6094039;23;90600;-91
2023/10/30 07:47:32;;;;;;;15.13;3.42;;;22.30;59.90;;;;;;6099303;23;88002;-94
2023/10/30 07:50:00;;;;;;;16.42;4.60;;;22.30;60.50;;;;;;6110415;23;91146;-94
2023/10/30 07:52:26;;;;;;;12.55;3.42;;;22.30;60.20;;;;;;6088247;23;87732;-94
2023/10/30 07:54:55;;;;;;;11.38;3.50;;;22.30;59.80;;;;;;6084285;22;90386;-91
2023/10/30 07:57:20;;;;;;;11.93;3.60;;;22.40;60.20;;;;;;6099648;23;87873;-92
2023/10/30 07:59:47;;;;;;;15.07;3.75;;;22.40;59.80;;;;;;6087947;23;87487;-96
2023/10/30 08:02:13;;;;;;;14.57;4.28;;;22.30;60.10;;;;;;6125583;22;87969;-94
2023/10/30 08:04:39;;;;;;;12.43;3.35;;;22.30;60.40;;;;;;6104992;23;88571;-94
2023/10/30 08:07:04;;;;;;;14.18;4.13;;;22.40;60.20;;;;;;6104071;23;87228;-90
2023/10/30 08:09:30;;;;;;;11.25;3.53;;;22.30;60.10;;;;;;6103745;23;86924;-94
2023/10/30 08:11:56;;;;;;;14.48;3.70;;;22.40;60.00;;;;;;6101701;23;90356;-94
2023/10/30 08:14:21;;;;;;;10.63;3.95;;;22.40;60.00;;;;;;6102761;23;90075;-93
2023/10/30 08:16:47;;;;;;;17.98;3.75;;;22.50;60.00;;;;;;6100182;23;87083;-92
2023/10/30 08:19:52;;;;;;;11.43;3.45;;;22.50;60.10;;;;;;6115433;23;88833;-89
2023/10/30 08:22:19;;;;;;;9.80;3.85;;;22.50;60.20;;;;;;6100274;23;87705;-94
2023/10/30 08:24:45;;;;;;;11.35;3.38;;;22.50;60.10;;;;;;6099011;23;88410;-90
2023/10/30 08:27:10;;;;;;;10.85;3.42;;;22.50;60.20;;;;;;6093163;23;87852;-93
2023/10/30 08:29:36;;;;;;;12.55;3.15;;;22.60;60.20;;;;;;6096941;23;89526;-91
2023/10/30 08:32:02;;;;;;;10.15;3.30;;;22.60;60.60;;;;;;6098348;23;87289;-91
2023/10/30 08:34:27;;;;;;;13.98;2.97;;;22.50;60.70;;;;;;6096108;23;87612;-91
2023/10/30 08:36:53;;;;;;;11.73;4.10;;;22.60;60.90;;;;;;6095614;23;87995;-89
2023/10/30 08:39:19;;;;;;;10.07;3.40;;;22.60;61.10;;;;;;6096275;23;89632;-91
2023/10/30 08:41:52;;;;;;;14.48;3.95;;;22.60;61.00;;;;;;6099949;23;89735;-93
2023/10/30 08:44:19;;;;;;;19.88;3.53;;;22.60;60.40;;;;;;6105702;23;87060;-91
2023/10/30 08:46:49;;;;;;;12.50;2.70;;;22.60;57.30;;;;;;6096023;23;87358;-94
2023/10/30 08:49:17;;;;;;;10.10;3.05;;;22.60;57.90;;;;;;6107081;23;88457;-93
2023/10/30 08:51:51;;;;;;;14.85;3.38;;;22.60;59.90;;;;;;6049013;23;89374;-93
2023/10/30 08:54:18;;;;;;;16.75;3.25;;;22.60;59.90;;;;;;6085201;23;90130;-92
2023/10/30 08:56:43;;;;;;;8.43;3.25;;;22.60;59.80;;;;;;6068690;23;87029;-92
2023/10/30 08:59:09;;;;;;;11.63;3.42;;;22.60;62.10;;;;;;6076453;23;89552;-91
2023/10/30 09:01:35;;;;;;;13.98;3.53;;;22.60;61.00;;;;;;6080892;23;91404;-90
2023/10/30 09:04:00;;;;;;;7.45;2.55;;;22.60;61.10;;;;;;6079345;23;88736;-89
2023/10/30 09:06:27;;;;;;;10.15;3.13;;;22.60;60.50;;;;;;6080548;23;87769;-89
2023/10/30 09:08:53;;;;;;;14.60;3.03;;;22.60;60.70;;;;;;6085557;23;88098;-93
2023/10/30 09:11:28;;;;;;;10.05;2.95;;;22.60;60.90;;;;;;6093208;23;89973;-93
2023/10/30 09:13:54;;;;;;;14.73;3.05;;;22.60;61.20;;;;;;6087919;23;89288;-91
2023/10/30 09:16:20;;;;;;;11.45;3.78;;;22.60;61.50;;;;;;6087911;23;87357;-92
2023/10/30 09:18:45;;;;;;;10.85;2.80;;;22.60;61.30;;;;;;6086212;23;87792;-94
2023/10/30 09:21:12;;;;;;;12.60;2.85;;;22.60;61.60;;;;;;6091225;23;90489;-93
2023/10/30 09:23:40;;;;;;;10.25;2.88;;;22.60;62.00;;;;;;6089102;23;87724;-85
2023/10/30 09:26:06;;;;;;;10.50;3.53;;;22.60;61.00;;;;;;6087968;23;88150;-86
2023/10/30 09:28:34;;;;;;;12.63;3.17;;;22.70;61.80;;;;;;6088774;23;87559;-85
2023/10/30 09:31:00;;;;;;;7.10;2.53;;;22.70;61.80;;;;;;6086367;23;90901;-86
2023/10/30 09:33:26;;;;;;;10.90;3.33;;;22.70;61.80;;;;;;6083252;23;88849;-85
2023/10/30 09:35:51;;;;;;;13.73;2.95;;;22.70;61.60;;;;;;6087506;23;87821;-85
2023/10/30 09:38:17;;;;;;;8.48;2.65;;;22.70;61.80;;;;;;6085856;23;88320;-86
2023/10/30 09:40:44;;;;;;;11.70;2.97;;;22.70;61.70;;;;;;6088360;23;90238;-86
2023/10/30 09:43:10;;;;;;;7.00;2.58;;;22.70;61.70;;;;;;6085307;23;90436;-85
2023/10/30 09:45:37;;;;;;;12.82;3.33;;;22.70;61.60;;;;;;6087176;23;87456;-85
2023/10/30 09:48:04;;;;;;;10.40;2.85;;;22.80;61.60;;;;;;6075775;23;89360;-86
2023/10/30 09:50:31;;;;;;;7.57;2.53;;;22.70;61.50;;;;;;6105229;23;89654;-86
2023/10/30 09:52:59;;;;;;;6.70;2.40;;;22.80;61.50;;;;;;6087658;23;88113;-86
2023/10/30 09:55:24;;;;;;;8.80;2.15;;;22.80;61.40;;;;;;6089365;23;87329;-86
2023/10/30 09:57:51;;;;;;;5.47;2.80;;;22.70;61.30;;;;;;6088337;23;86889;-87
2023/10/30 10:00:18;;;;;;;12.40;2.65;;;22.70;61.10;;;;;;6077144;23;88145;-85
2023/10/30 10:02:44;;;;;;;7.53;2.58;;;22.70;60.90;;;;;;6089401;23;87790;-87
2023/10/30 10:05:12;;;;;;;5.40;2.53;;;22.70;60.80;;;;;;6089263;23;87065;-85
2023/10/30 10:07:39;;;;;;;9.18;2.35;;;22.70;61.10;;;;;;6088396;23;86690;-87
2023/10/30 10:10:09;;;;;;;9.68;2.75;;;22.70;61.20;;;;;;6089884;23;86991;-85
2023/10/30 10:12:38;;;;;;;10.52;3.42;;;22.70;61.10;;;;;;6087039;23;89385;-85
2023/10/30 10:15:08;;;;;;;6.28;2.38;;;22.70;60.90;;;;;;6085925;23;88433;-84
2023/10/30 10:17:45;;;;;;;6.95;2.80;;;22.70;60.90;;;;;;6089035;23;87708;-86
2023/10/30 10:20:11;;;;;;;10.02;2.75;;;22.70;60.60;;;;;;6088960;23;88022;-84
2023/10/30 10:22:37;;;;;;;10.48;2.45;;;22.70;60.20;;;;;;6086687;23;87398;-86
2023/10/30 10:25:03;;;;;;;6.88;2.60;;;22.70;60.10;;;;;;6086969;23;87472;-85
2023/10/30 10:27:29;;;;;;;6.72;2.40;;;22.70;59.80;;;;;;6087559;23;87521;-85
2023/10/30 10:29:56;;;;;;;7.30;2.05;;;22.70;59.60;;;;;;6086133;23;87549;-85
2023/10/30 10:32:28;;;;;;;5.80;1.98;;;22.70;59.50;;;;;;6088860;23;88308;-85
2023/10/30 10:34:57;;;;;;;7.40;2.60;;;22.70;59.50;;;;;;6087605;23;88015;-87
2023/10/30 10:37:32;;;;;;;5.70;2.10;;;22.70;59.40;;;;;;6088079;23;87722;-86
2023/10/30 10:39:59;;;;;;;6.03;1.88;;;22.60;59.50;;;;;;6086682;23;91547;-84
2023/10/30 10:42:26;;;;;;;9.68;2.53;;;22.70;59.50;;;;;;6088752;23;88601;-86
2023/10/30 10:44:53;;;;;;;3.72;1.88;;;22.70;59.80;;;;;;6087169;23;87429;-86
2023/10/30 10:47:20;;;;;;;8.27;2.25;;;22.70;60.00;;;;;;6086853;23;89599;-88
2023/10/30 10:49:46;;;;;;;5.65;2.28;;;22.60;60.50;;;;;;6088724;23;88024;-87
2023/10/30 10:52:14;;;;;;;5.18;1.90;;;22.60;60.90;;;;;;6090840;23;89754;-93
2023/10/30 10:55:04;;;;;;;10.85;2.17;;;22.60;60.70;;;;;;6091130;23;86898;-91
2023/10/30 10:57:51;;;;;;;9.32;1.95;;;22.60;62.80;;;;;;6081071;23;89392;-90
2023/10/30 11:00:18;;;;;;;5.40;2.28;;;22.60;62.40;;;;;;6093228;23;88916;-90
2023/10/30 11:02:48;;;;;;;6.22;1.85;;;22.60;62.60;;;;;;6092089;23;89377;-91
2023/10/30 11:05:14;;;;;;;7.90;2.58;;;22.60;62.80;;;;;;6089243;23;88560;-91
2023/10/30 11:08:28;;;;;;;4.50;1.67;;;22.60;62.80;;;;;;6090485;23;89130;-88
2023/10/30 11:11:03;;;;;;;7.55;2.17;;;22.60;62.80;;;;;;6078368;23;90555;-86
2023/10/30 11:14:04;;;;;;;6.03;2.08;;;22.60;62.70;;;;;;6087433;23;86931;-87
2023/10/30 11:16:40;;;;;;;7.25;1.90;;;22.60;62.50;;;;;;6056320;23;87304;-92
2023/10/30 11:19:13;;;;;;;6.93;2.28;;;22.60;62.50;;;;;;6086270;23;87570;-90
2023/10/30 11:21:40;;;;;;;8.52;2.40;;;22.60;61.40;;;;;;6089634;23;88261;-86
2023/10/30 11:24:06;;;;;;;6.53;2.40;;;22.60;62.10;;;;;;6086869;23;88214;-86
2023/10/30 11:27:05;;;;;;;8.07;2.78;;;22.60;62.10;;;;;;6087276;23;87412;-87
2023/10/30 11:29:57;;;;;;;7.45;2.65;;;22.60;62.40;;;;;;6084243;23;90440;-85
2023/10/30 11:32:29;;;;;;;10.90;2.30;;;22.60;62.20;;;;;;6084767;23;93235;-85
2023/10/30 11:34:55;;;;;;;11.07;2.60;;;22.60;62.40;;;;;;6087126;23;88760;-86
2023/10/30 11:37:22;;;;;;;10.63;2.60;;;22.50;62.30;;;;;;6086750;23;86925;-85
2023/10/30 11:39:49;;;;;;;9.70;2.75;;;22.50;62.30;;;;;;6086383;23;87558;-85
2023/10/30 11:42:24;;;;;;;6.43;1.98;;;22.50;62.20;;;;;;6086001;23;88298;-86
2023/10/30 11:45:14;;;;;;;6.47;2.05;;;22.50;62.30;;;;;;6084542;23;90640;-86
2023/10/30 11:47:42;;;;;;;6.13;2.65;;;22.50;62.20;;;;;;6072774;23;87040;-85
2023/10/30 11:50:09;;;;;;;7.47;2.38;;;22.50;62.20;;;;;;6086624;23;88068;-85
2023/10/30 11:52:37;;;;;;;10.75;3.28;;;22.50;62.40;;;;;;6088486;23;87746;-86
2023/10/30 11:55:06;;;;;;;8.02;2.65;;;22.50;62.40;;;;;;6088447;23;87452;-85
2023/10/30 11:57:34;;;;;;;7.55;2.58;;;22.50;62.30;;;;;;6086143;23;88739;-85
2023/10/30 12:00:00;;;;;;;7.47;2.72;;;22.50;62.20;;;;;;6078252;22;86988;-85
2023/10/30 12:02:25;;;;;;;3.38;1.90;;;22.40;62.30;;;;;;6086302;23;90161;-86
2023/10/30 12:04:51;;;;;;;7.90;2.50;;;22.50;62.30;;;;;;6086639;23;88929;-85
2023/10/30 12:07:17;;;;;;;8.52;2.35;;;22.50;62.40;;;;;;6085300;23;88405;-85
2023/10/30 12:09:42;;;;;;;8.73;2.50;;;22.40;62.40;;;;;;6088437;23;87262;-87
2023/10/30 12:12:08;;;;;;;8.82;2.60;;;22.40;62.30;;;;;;6087472;23;87467;-84
2023/10/30 12:14:34;;;;;;;6.00;2.03;;;22.40;62.40;;;;;;6088363;23;87721;-86
2023/10/30 12:17:00;;;;;;;6.97;2.17;;;22.40;62.60;;;;;;6087451;23;87171;-86
2023/10/30 12:19:25;;;;;;;7.07;2.65;;;22.40;62.30;;;;;;6087914;23;87377;-86
2023/10/30 12:21:52;;;;;;;8.82;2.55;;;22.40;62.20;;;;;;6088048;23;89376;-85
2023/10/30 12:24:29;;;;;;;;;;;;;;;;;;;;;
2023/10/30 12:26:54;;;;;;;8.32;2.28;;;22.40;62.20;;;;;;6088830;23;87718;-85
2023/10/30 12:29:24;;;;;;;5.47;1.90;;;22.40;62.40;;;;;;6089327;23;87270;-85
2023/10/30 12:32:11;;;;;;;10.77;2.38;;;22.40;62.30;;;;;;6085757;23;87762;-86
2023/10/30 12:34:37;;;;;;;8.55;3.22;;;22.40;62.00;;;;;;6085674;23;87797;-85
2023/10/30 12:37:25;;;;;;;9.00;2.40;;;22.40;62.20;;;;;;6085067;23;86866;-85
2023/10/30 12:40:03;;;;;;;5.63;2.45;;;22.40;62.30;;;;;;6088356;23;86906;-85
2023/10/30 12:42:33;;;;;;;9.90;3.03;;;22.40;62.30;;;;;;6089285;23;88061;-85
2023/10/30 12:45:03;;;;;;;4.35;1.92;;;22.40;62.20;;;;;;6073852;23;87662;-85
2023/10/30 12:47:28;;;;;;;;;;;22.40;62.20;;;;;;6086022;23;88642;-87
2023/10/30 12:49:54;;;;;;;5.38;2.17;;;22.40;62.10;;;;;;6090965;23;87035;-88